createdAt,value
2016-08-17T00:00:49.129Z,99.99
2016-08-17T00:01:49.126Z,99.99
2016-08-17T00:02:49.115Z,99.99
2016-08-17T00:03:49.109Z,99.99
2016-08-17T00:04:49.109Z,99.99
2016-08-17T00:05:49.790Z,99.99
2016-08-17T00:06:49.094Z,99.99
2016-08-17T00:07:49.086Z,99.99
2016-08-17T00:08:49.077Z,99.99
2016-08-17T00:09:49.071Z,99.99
2016-08-17T00:10:49.065Z,99.99
2016-08-17T00:11:49.059Z,99.99
2016-08-17T00:12:49.053Z,99.99
2016-08-17T00:13:49.046Z,99.99
2016-08-17T00:14:49.038Z,99.99
2016-08-17T00:15:49.029Z,99.99
2016-08-17T00:16:49.031Z,99.99
2016-08-17T00:17:49.019Z,99.99
2016-08-17T00:18:49.011Z,99.99
2016-08-17T00:19:49.366Z,99.99
2016-08-17T00:20:49.011Z,99.99
2016-08-17T00:21:48.998Z,99.99
2016-08-17T00:22:48.988Z,99.99
2016-08-17T00:23:48.984Z,99.99
2016-08-17T00:24:48.987Z,99.99
2016-08-17T00:25:50.072Z,99.99
2016-08-17T00:26:48.963Z,99.99
2016-08-17T00:27:48.960Z,99.99
2016-08-17T00:28:49.052Z,99.99
2016-08-17T00:29:48.940Z,99.99
2016-08-17T00:30:48.938Z,99.99
2016-08-17T00:31:48.930Z,99.99
2016-08-17T00:32:48.921Z,99.99
2016-08-17T00:34:49.112Z,99.99
2016-08-17T00:35:48.901Z,99.99
2016-08-17T00:36:48.894Z,99.99
2016-08-17T00:37:49.144Z,99.99
2016-08-17T00:38:48.894Z,99.99
2016-08-17T00:39:48.875Z,99.99
2016-08-17T00:40:48.871Z,99.99
2016-08-17T00:41:48.867Z,99.99
2016-08-17T00:42:48.858Z,99.99
2016-08-17T00:43:48.848Z,99.99
2016-08-17T00:44:48.848Z,99.99
2016-08-17T00:45:48.837Z,99.99
2016-08-17T00:46:48.833Z,99.99
2016-08-17T00:47:48.828Z,99.99
2016-08-17T00:48:48.815Z,99.99
2016-08-17T00:49:48.816Z,99.99
2016-08-17T00:50:48.805Z,99.99
2016-08-17T00:51:48.807Z,99.99
2016-08-17T00:52:48.792Z,99.99
2016-08-17T00:53:48.785Z,99.99
2016-08-17T00:54:48.776Z,99.99
2016-08-17T00:55:48.774Z,99.99
2016-08-17T00:56:48.765Z,99.99
2016-08-17T00:57:48.757Z,99.99
2016-08-17T00:58:48.752Z,99.99
2016-08-17T00:59:48.743Z,99.99
2016-08-17T01:00:48.745Z,99.99
2016-08-17T01:01:48.739Z,99.99
2016-08-17T01:02:48.726Z,99.99
2016-08-17T01:03:48.715Z,99.99
2016-08-17T01:04:50.229Z,99.99
2016-08-17T01:05:48.784Z,99.99
2016-08-17T01:06:48.699Z,99.99
2016-08-17T01:07:49.346Z,99.99
2016-08-17T01:08:49.561Z,99.99
2016-08-17T01:09:48.824Z,99.99
2016-08-17T01:10:48.670Z,99.99
2016-08-17T01:11:48.662Z,99.99
2016-08-17T01:12:48.684Z,99.99
2016-08-17T01:13:48.647Z,99.99
2016-08-17T01:14:49.330Z,99.99
2016-08-17T01:15:49.787Z,99.99
2016-08-17T01:16:48.628Z,99.99
2016-08-17T01:17:49.241Z,99.99
2016-08-17T01:18:48.810Z,99.99
2016-08-17T01:19:48.613Z,99.99
2016-08-17T01:20:48.678Z,99.99
2016-08-17T01:21:48.647Z,99.99
2016-08-17T01:22:48.596Z,99.99
2016-08-17T01:23:48.582Z,99.99
2016-08-17T01:24:48.584Z,99.99
2016-08-17T01:25:48.567Z,99.99
2016-08-17T01:26:48.564Z,99.99
2016-08-17T01:27:48.557Z,99.99
2016-08-17T01:28:48.548Z,99.99
2016-08-17T01:29:48.543Z,99.99
2016-08-17T01:30:48.535Z,99.99
2016-08-17T01:31:48.534Z,99.99
2016-08-17T01:32:48.540Z,99.99
2016-08-17T01:33:48.523Z,99.99
2016-08-17T01:34:48.510Z,99.99
2016-08-17T01:35:48.500Z,99.99
2016-08-17T01:36:48.497Z,99.99
2016-08-17T01:37:48.495Z,99.99
2016-08-17T01:38:48.482Z,99.99
2016-08-17T01:39:48.475Z,99.99
2016-08-17T01:40:48.471Z,99.99
2016-08-17T01:41:48.463Z,99.99
2016-08-17T01:42:49.159Z,99.99
2016-08-17T01:43:48.702Z,99.99
2016-08-17T01:45:04.059Z,99.99
2016-08-17T01:46:03.349Z,99.99
2016-08-17T01:46:49.182Z,99.99
2016-08-17T01:47:48.417Z,99.99
2016-08-17T01:48:48.416Z,99.99
2016-08-17T01:49:48.407Z,99.99
2016-08-17T01:50:48.399Z,99.99
2016-08-17T01:51:48.394Z,99.99
2016-08-17T01:52:48.592Z,99.99
2016-08-17T01:53:49.183Z,99.99
2016-08-17T01:55:03.390Z,99.99
2016-08-17T01:55:48.368Z,99.99
2016-08-17T01:56:48.359Z,99.99
2016-08-17T01:57:48.608Z,99.99
2016-08-17T01:58:48.345Z,99.99
2016-08-17T01:59:48.343Z,99.99
2016-08-17T02:00:48.338Z,99.99
2016-08-17T02:01:48.323Z,99.99
2016-08-17T02:02:48.319Z,99.99
2016-08-17T02:03:48.312Z,99.99
2016-08-17T02:04:48.304Z,99.99
2016-08-17T02:05:48.299Z,99.99
2016-08-17T02:06:48.290Z,99.99
2016-08-17T02:07:48.289Z,99.99
2016-08-17T02:08:48.282Z,99.99
2016-08-17T02:09:48.271Z,99.99
2016-08-17T02:10:48.264Z,99.99
2016-08-17T02:11:48.256Z,99.99
2016-08-17T02:12:48.254Z,99.99
2016-08-17T02:13:48.244Z,99.99
2016-08-17T02:14:48.243Z,99.99
2016-08-17T02:15:48.235Z,99.99
2016-08-17T02:16:48.223Z,99.99
2016-08-17T02:17:48.216Z,99.99
2016-08-17T02:18:48.212Z,99.99
2016-08-17T02:19:48.198Z,99.99
2016-08-17T02:20:48.199Z,99.99
2016-08-17T02:21:48.186Z,99.99
2016-08-17T02:22:48.670Z,99.99
2016-08-17T02:23:49.694Z,99.99
2016-08-17T02:24:48.170Z,99.99
2016-08-17T02:25:48.165Z,99.99
2016-08-17T02:26:48.156Z,99.99
2016-08-17T02:27:48.144Z,99.99
2016-08-17T02:28:48.137Z,99.99
2016-08-17T02:29:48.322Z,99.99
2016-08-17T02:30:48.128Z,99.99
2016-08-17T02:31:48.120Z,99.99
2016-08-17T02:32:48.153Z,99.99
2016-08-17T02:33:49.274Z,99.99
2016-08-17T02:34:48.603Z,99.99
2016-08-17T02:35:48.095Z,99.99
2016-08-17T02:36:48.087Z,99.99
2016-08-17T02:37:48.081Z,99.99
2016-08-17T02:38:48.328Z,99.99
2016-08-17T02:39:48.063Z,99.99
2016-08-17T02:40:48.056Z,99.99
2016-08-17T02:41:48.053Z,99.99
2016-08-17T02:42:48.045Z,99.99
2016-08-17T02:43:48.040Z,99.99
2016-08-17T02:44:48.025Z,99.99
2016-08-17T02:45:48.022Z,99.99
2016-08-17T02:46:48.013Z,99.99
2016-08-17T02:47:48.015Z,99.99
2016-08-17T02:48:48.004Z,99.99
2016-08-17T02:49:47.994Z,99.99
2016-08-17T02:50:47.986Z,99.99
2016-08-17T02:51:47.980Z,99.99
2016-08-17T02:52:47.977Z,99.99
2016-08-17T02:53:47.971Z,99.99
2016-08-17T02:54:47.961Z,99.99
2016-08-17T02:55:47.959Z,99.99
2016-08-17T02:56:47.951Z,99.99
2016-08-17T02:57:47.936Z,99.99
2016-08-17T02:58:47.935Z,99.99
2016-08-17T02:59:47.925Z,99.99
2016-08-17T03:01:02.834Z,99.99
2016-08-17T03:01:47.910Z,99.99
2016-08-17T03:02:48.552Z,99.99
2016-08-17T03:03:47.897Z,99.99
2016-08-17T03:05:02.805Z,99.99
2016-08-17T03:05:47.880Z,99.99
2016-08-17T03:06:48.075Z,99.99
2016-08-17T03:07:47.974Z,99.99
2016-08-17T03:08:47.867Z,99.99
2016-08-17T03:09:48.557Z,99.99
2016-08-17T03:10:48.246Z,99.99
2016-08-17T03:11:48.535Z,99.99
2016-08-17T03:12:48.086Z,99.99
2016-08-17T03:13:48.626Z,99.99
2016-08-17T03:14:47.819Z,99.99
2016-08-17T03:15:47.814Z,99.99
2016-08-17T03:16:47.807Z,99.99
2016-08-17T03:17:47.797Z,99.99
2016-08-17T03:18:47.790Z,99.99
2016-08-17T03:19:47.785Z,99.99
2016-08-17T03:20:47.777Z,99.99
2016-08-17T03:21:47.774Z,99.99
2016-08-17T03:22:47.767Z,99.99
2016-08-17T03:23:47.765Z,99.99
2016-08-17T03:24:47.752Z,99.99
2016-08-17T03:25:47.741Z,99.99
2016-08-17T03:26:47.732Z,99.99
2016-08-17T03:27:47.736Z,99.99
2016-08-17T03:28:47.722Z,99.99
2016-08-17T03:29:47.717Z,99.99
2016-08-17T03:30:47.706Z,99.99
2016-08-17T03:31:47.713Z,99.99
2016-08-17T03:32:47.705Z,99.99
2016-08-17T03:33:47.698Z,99.99
2016-08-17T03:34:47.673Z,99.99
2016-08-17T03:35:47.670Z,99.99
2016-08-17T03:36:47.662Z,99.99
2016-08-17T03:37:47.657Z,99.99
2016-08-17T03:38:47.650Z,99.99
2016-08-17T03:39:47.640Z,99.99
2016-08-17T03:40:47.643Z,99.99
2016-08-17T03:41:48.913Z,99.99
2016-08-17T03:42:47.617Z,99.99
2016-08-17T03:43:47.610Z,99.99
2016-08-17T03:44:47.710Z,99.99
2016-08-17T03:45:47.599Z,99.99
2016-08-17T03:46:47.592Z,99.99
2016-08-17T03:47:47.643Z,99.99
2016-08-17T03:48:47.575Z,99.99
2016-08-17T03:49:49.092Z,99.99
2016-08-17T03:50:47.574Z,99.99
2016-08-17T03:51:47.985Z,99.99
2016-08-17T03:52:48.040Z,99.99
2016-08-17T03:53:47.540Z,99.99
2016-08-17T03:54:48.153Z,99.99
2016-08-17T03:55:47.541Z,99.99
2016-08-17T03:56:47.603Z,99.99
2016-08-17T03:57:47.507Z,99.99
2016-08-17T03:58:47.508Z,99.99
2016-08-17T03:59:47.498Z,99.99
2016-08-17T04:00:47.493Z,99.99
2016-08-17T04:01:47.480Z,99.99
2016-08-17T04:02:47.472Z,99.99
2016-08-17T04:03:47.469Z,99.99
2016-08-17T04:04:47.460Z,99.99
2016-08-17T04:05:47.454Z,99.99
2016-08-17T04:06:47.446Z,99.99
2016-08-17T04:07:47.441Z,99.99
2016-08-17T04:08:47.438Z,99.99
2016-08-17T04:09:47.427Z,99.99
2016-08-17T04:10:47.416Z,99.99
2016-08-17T04:11:47.413Z,99.99
2016-08-17T04:12:47.407Z,99.99
2016-08-17T04:13:47.394Z,99.99
2016-08-17T04:14:47.387Z,99.99
2016-08-17T04:15:47.379Z,99.99
2016-08-17T04:16:47.375Z,99.99
2016-08-17T04:17:47.370Z,99.99
2016-08-17T04:18:48.565Z,99.99
2016-08-17T04:19:47.605Z,99.99
2016-08-17T04:20:47.347Z,99.99
2016-08-17T04:21:47.845Z,99.99
2016-08-17T04:23:47.627Z,99.99
2016-08-17T04:24:47.322Z,99.99
2016-08-17T04:25:47.317Z,99.99
2016-08-17T04:26:47.306Z,99.99
2016-08-17T04:27:47.301Z,99.99
2016-08-17T04:28:47.299Z,99.99
2016-08-17T04:29:47.291Z,99.99
2016-08-17T04:30:47.533Z,99.99
2016-08-17T04:31:47.275Z,99.99
2016-08-17T04:33:47.263Z,99.99
2016-08-17T04:34:47.261Z,99.99
2016-08-17T04:35:47.254Z,99.99
2016-08-17T04:36:47.247Z,99.99
2016-08-17T04:37:47.239Z,99.99
2016-08-17T04:38:47.235Z,99.99
2016-08-17T04:39:47.232Z,99.99
2016-08-17T04:40:47.232Z,99.99
2016-08-17T04:41:47.226Z,99.99
2016-08-17T04:42:47.223Z,99.99
2016-08-17T04:43:47.216Z,99.99
2016-08-17T04:44:47.215Z,99.99
2016-08-17T04:45:47.212Z,99.99
2016-08-17T04:46:47.206Z,99.99
2016-08-17T04:47:47.202Z,99.99
2016-08-17T04:48:47.200Z,99.99
2016-08-17T04:49:47.198Z,99.99
2016-08-17T04:50:47.198Z,99.99
2016-08-17T04:51:47.203Z,99.99
2016-08-17T04:52:47.189Z,99.99
2016-08-17T04:53:47.187Z,99.99
2016-08-17T04:54:47.191Z,99.99
2016-08-17T04:55:47.187Z,99.99
2016-08-17T04:56:47.184Z,99.99
2016-08-17T04:57:47.185Z,99.99
2016-08-17T04:58:47.785Z,99.99
2016-08-17T04:59:47.186Z,99.99
2016-08-17T05:00:48.661Z,99.99
2016-08-17T05:01:47.181Z,99.99
2016-08-17T05:02:48.252Z,99.99
2016-08-17T05:03:47.178Z,99.99
2016-08-17T05:04:47.676Z,99.99
2016-08-17T05:05:47.496Z,99.99
2016-08-17T05:06:47.179Z,99.99
2016-08-17T05:07:48.039Z,99.99
2016-08-17T05:09:47.704Z,99.99
2016-08-17T05:10:48.381Z,99.99
2016-08-17T05:11:47.717Z,99.99
2016-08-17T05:12:47.185Z,99.99
2016-08-17T05:13:47.740Z,99.99
2016-08-17T05:14:47.187Z,99.99
2016-08-17T05:15:47.188Z,99.87
2016-08-17T05:16:47.196Z,99.78
2016-08-17T05:17:47.191Z,99.01
2016-08-17T05:18:47.192Z,99.35
2016-08-17T05:19:47.195Z,98.96
2016-08-17T05:20:47.199Z,98.63
2016-08-17T05:21:47.206Z,98.91
2016-08-17T05:22:47.198Z,98.63
2016-08-17T05:23:47.207Z,98.58
2016-08-17T05:24:47.210Z,98.49
2016-08-17T05:25:47.209Z,98.05
2016-08-17T05:26:47.215Z,98.14
2016-08-17T05:27:47.217Z,97.57
2016-08-17T05:28:47.218Z,96.75
2016-08-17T05:29:47.221Z,96.66
2016-08-17T05:30:47.228Z,95.89
2016-08-17T05:31:47.241Z,96.32
2016-08-17T05:32:47.239Z,96.32
2016-08-17T05:33:47.239Z,95.64
2016-08-17T05:34:47.247Z,94.82
2016-08-17T05:35:47.256Z,94.24
2016-08-17T05:36:47.259Z,93.28
2016-08-17T05:37:47.462Z,92.13
2016-08-17T05:38:47.264Z,91.83
2016-08-17T05:40:47.282Z,91.41
2016-08-17T05:41:47.284Z,91.41
2016-08-17T05:42:47.736Z,90.69
2016-08-17T05:43:47.288Z,90.88
2016-08-17T05:44:47.299Z,90.78
2016-08-17T05:45:47.301Z,90.93
2016-08-17T05:46:48.054Z,91.31
2016-08-17T05:47:48.157Z,91.13
2016-08-17T05:48:47.308Z,91.6
2016-08-17T05:49:47.315Z,91.03
2016-08-17T05:50:47.322Z,92.04
2016-08-17T05:51:47.327Z,92.23
2016-08-17T05:52:47.331Z,93.1
2016-08-17T05:53:47.340Z,92.95
2016-08-17T05:54:47.337Z,93.05
2016-08-17T05:55:47.340Z,92.85
2016-08-17T05:56:47.345Z,92.76
2016-08-17T05:57:47.352Z,93.15
2016-08-17T05:58:47.357Z,92.76
2016-08-17T05:59:47.361Z,93.24
2016-08-17T06:00:47.363Z,93.67
2016-08-17T06:01:47.374Z,94.06
2016-08-17T06:02:47.375Z,94.29
2016-08-17T06:03:47.381Z,94.29
2016-08-17T06:04:47.389Z,94.34
2016-08-17T06:05:47.392Z,94.63
2016-08-17T06:06:47.403Z,94.29
2016-08-17T06:07:47.408Z,94.34
2016-08-17T06:08:47.408Z,94.77
2016-08-17T06:09:47.418Z,93.85
2016-08-17T06:10:47.433Z,93.47
2016-08-17T06:11:47.432Z,93.32
2016-08-17T06:12:47.434Z,93.08
2016-08-17T06:13:47.444Z,92.4
2016-08-17T06:14:47.455Z,92.06
2016-08-17T06:15:47.460Z,91.48
2016-08-17T06:16:47.471Z,91.28
2016-08-17T06:17:49.203Z,91.24
2016-08-17T06:18:48.425Z,90.9
2016-08-17T06:19:47.493Z,91.28
2016-08-17T06:20:47.502Z,91.38
2016-08-17T06:21:47.512Z,89.88
2016-08-17T06:22:47.819Z,91.38
2016-08-17T06:23:47.528Z,91.33
2016-08-17T06:24:47.700Z,91.19
2016-08-17T06:25:47.548Z,91.14
2016-08-17T06:26:47.886Z,92.01
2016-08-17T06:27:47.658Z,91.33
2016-08-17T06:28:47.590Z,91.96
2016-08-17T06:29:47.591Z,91.63
2016-08-17T06:30:47.597Z,92.59
2016-08-17T06:31:47.607Z,89.74
2016-08-17T06:32:47.618Z,92.01
2016-08-17T06:33:47.627Z,94.53
2016-08-17T06:34:47.637Z,92.59
2016-08-17T06:35:47.644Z,91.67
2016-08-17T06:36:47.654Z,91.09
2016-08-17T06:37:47.666Z,90.9
2016-08-17T06:38:47.683Z,88.24
2016-08-17T06:39:47.682Z,91
2016-08-17T06:40:47.712Z,90.95
2016-08-17T06:41:47.700Z,90.67
2016-08-17T06:42:47.712Z,91.35
2016-08-17T06:43:47.723Z,91.49
2016-08-17T06:44:47.728Z,91.59
2016-08-17T06:45:47.740Z,89.07
2016-08-17T06:46:47.750Z,92.46
2016-08-17T06:47:47.758Z,91.5
2016-08-17T06:48:47.774Z,91.06
2016-08-17T06:49:47.774Z,92.13
2016-08-17T06:50:47.778Z,92.99
2016-08-17T06:51:47.790Z,93.09
2016-08-17T06:52:47.803Z,93.09
2016-08-17T06:53:47.807Z,93.57
2016-08-17T06:54:47.807Z,92.51
2016-08-17T06:56:02.737Z,94.24
2016-08-17T06:56:47.828Z,95.89
2016-08-17T06:57:47.835Z,95.69
2016-08-17T06:58:48.290Z,96.89
2016-08-17T06:59:47.873Z,97.72
2016-08-17T07:00:47.858Z,98.44
2016-08-17T07:01:47.867Z,98.73
2016-08-17T07:02:47.877Z,99.46
2016-08-17T07:03:47.887Z,97.62
2016-08-17T07:04:49.045Z,93.75
2016-08-17T07:05:47.951Z,96.07
2016-08-17T07:06:47.914Z,98.1
2016-08-17T07:07:47.919Z,95.1
2016-08-17T07:08:47.936Z,96.46
2016-08-17T07:09:47.947Z,95.97
2016-08-17T07:10:47.953Z,94.62
2016-08-17T07:11:47.959Z,93.7
2016-08-17T07:12:47.983Z,93.6
2016-08-17T07:13:47.978Z,92.34
2016-08-17T07:14:47.989Z,93.6
2016-08-17T07:15:47.999Z,93.41
2016-08-17T07:16:48.018Z,92.93
2016-08-17T07:17:48.024Z,93.6
2016-08-17T07:18:48.030Z,94.23
2016-08-17T07:19:48.036Z,94.32
2016-08-17T07:20:48.048Z,93.16
2016-08-17T07:21:48.057Z,92.19
2016-08-17T07:22:48.069Z,92.49
2016-08-17T07:23:48.081Z,93.94
2016-08-17T07:24:48.090Z,94.18
2016-08-17T07:25:48.096Z,94.47
2016-08-17T07:26:48.120Z,95.58
2016-08-17T07:27:48.118Z,96.94
2016-08-17T07:28:48.131Z,97.56
2016-08-17T07:29:48.144Z,96.69
2016-08-17T07:30:48.150Z,95.53
2016-08-17T07:31:48.167Z,94.07
2016-08-17T07:32:48.172Z,91.79
2016-08-17T07:33:48.185Z,91.07
2016-08-17T07:34:48.198Z,91.55
2016-08-17T07:35:48.944Z,92.72
2016-08-17T07:36:48.955Z,94.66
2016-08-17T07:37:48.230Z,95.53
2016-08-17T07:38:49.123Z,97.03
2016-08-17T07:39:48.246Z,97.42
2016-08-17T07:40:48.366Z,98.54
2016-08-17T07:41:48.268Z,99.07
2016-08-17T07:42:48.280Z,99.32
2016-08-17T07:43:48.288Z,99.9
2016-08-17T07:44:49.820Z,99.99
2016-08-17T07:45:48.407Z,98.97
2016-08-17T07:46:48.322Z,98.97
2016-08-17T07:47:49.190Z,99.17
2016-08-17T07:48:48.347Z,99.99
2016-08-17T07:49:48.931Z,99.99
2016-08-17T07:50:48.368Z,99.99
2016-08-17T07:51:48.489Z,99.99
2016-08-17T07:52:48.388Z,99.99
2016-08-17T07:53:48.408Z,99.99
2016-08-17T07:54:48.417Z,99.46
2016-08-17T07:55:48.425Z,98.14
2016-08-17T07:56:48.433Z,98.54
2016-08-17T07:57:48.450Z,98.73
2016-08-17T07:58:48.456Z,99.71
2016-08-17T07:59:48.469Z,99.99
2016-08-17T08:00:48.486Z,99.99
2016-08-17T08:01:48.496Z,99.99
2016-08-17T08:02:48.511Z,99.99
2016-08-17T08:03:48.518Z,99.51
2016-08-17T08:04:48.529Z,99.9
2016-08-17T08:05:48.540Z,99.41
2016-08-17T08:06:48.554Z,99.32
2016-08-17T08:07:49.271Z,99.22
2016-08-17T08:08:48.592Z,98.78
2016-08-17T08:09:48.595Z,99.37
2016-08-17T08:10:48.606Z,99.56
2016-08-17T08:11:48.623Z,99.8
2016-08-17T08:12:48.632Z,99.9
2016-08-17T08:13:49.850Z,99.51
2016-08-17T08:14:48.660Z,99.99
2016-08-17T08:17:03.607Z,97.41
2016-08-17T08:17:49.398Z,96.88
2016-08-17T08:18:48.715Z,97.66
2016-08-17T08:19:48.727Z,98.83
2016-08-17T08:20:48.740Z,98.73
2016-08-17T08:21:48.752Z,95.9
2016-08-17T08:22:49.519Z,95.85
2016-08-17T08:23:48.778Z,96.04
2016-08-17T08:24:48.795Z,94.29
2016-08-17T08:25:48.805Z,95.42
2016-08-17T08:27:48.834Z,97.27
2016-08-17T08:28:48.845Z,98
2016-08-17T08:29:48.861Z,98.29
2016-08-17T08:30:48.875Z,96.73
2016-08-17T08:31:48.883Z,94.44
2016-08-17T08:32:48.902Z,94.4
2016-08-17T08:33:48.915Z,94.69
2016-08-17T08:34:48.923Z,94.45
2016-08-17T08:35:48.938Z,94.35
2016-08-17T08:36:48.948Z,95.18
2016-08-17T08:37:48.962Z,93.62
2016-08-17T08:38:48.979Z,92.02
2016-08-17T08:39:48.988Z,93.04
2016-08-17T08:40:48.999Z,92.8
2016-08-17T08:41:49.012Z,91.69
2016-08-17T08:42:49.024Z,92.52
2016-08-17T08:43:49.033Z,91.99
2016-08-17T08:44:49.048Z,92.52
2016-08-17T08:45:49.058Z,92.86
2016-08-17T08:46:49.062Z,93.7
2016-08-17T08:47:49.077Z,94.32
2016-08-17T08:48:49.085Z,94.52
2016-08-17T08:49:49.112Z,94.9
2016-08-17T08:50:49.104Z,94.86
2016-08-17T08:51:49.111Z,95.05
2016-08-17T08:52:49.123Z,95.34
2016-08-17T08:53:50.692Z,96.26
2016-08-17T08:54:49.435Z,96.55
2016-08-17T08:55:49.141Z,97.23
2016-08-17T08:56:49.151Z,98
2016-08-17T08:57:49.160Z,97.81
2016-08-17T08:58:49.165Z,96.89
2016-08-17T08:59:49.172Z,96.51
2016-08-17T09:00:49.189Z,96.22
2016-08-17T09:01:49.187Z,97.23
2016-08-17T09:02:49.503Z,97.23
2016-08-17T09:03:50.716Z,97.42
2016-08-17T09:04:49.203Z,97.62
2016-08-17T09:05:49.211Z,98
2016-08-17T09:06:49.215Z,98.54
2016-08-17T09:07:49.797Z,99.02
2016-08-17T09:08:49.313Z,99.36
2016-08-17T09:09:49.231Z,99.41
2016-08-17T09:10:49.238Z,99.41
2016-08-17T09:11:49.245Z,99.31
2016-08-17T09:12:49.249Z,99.11
2016-08-17T09:13:49.253Z,99.6
2016-08-17T09:14:49.257Z,99.99
2016-08-17T09:15:49.263Z,99.41
2016-08-17T09:16:49.271Z,99.31
2016-08-17T09:17:49.276Z,99.45
2016-08-17T09:18:49.278Z,98.97
2016-08-17T09:19:49.281Z,97.33
2016-08-17T09:20:49.286Z,95.25
2016-08-17T09:21:49.292Z,93.66
2016-08-17T09:22:49.295Z,92.27
2016-08-17T09:23:49.301Z,93.09
2016-08-17T09:24:49.303Z,94.73
2016-08-17T09:25:49.308Z,94.54
2016-08-17T09:26:49.311Z,96.27
2016-08-17T09:27:49.320Z,97.42
2016-08-17T09:28:49.318Z,97.33
2016-08-17T09:29:49.321Z,98.05
2016-08-17T09:30:49.327Z,99.21
2016-08-17T09:31:49.331Z,99.11
2016-08-17T09:32:50.290Z,97.72
2016-08-17T09:33:49.335Z,95.93
2016-08-17T09:34:49.344Z,94.29
2016-08-17T09:35:49.700Z,93.19
2016-08-17T09:36:49.358Z,93.28
2016-08-17T09:37:49.353Z,95.31
2016-08-17T09:38:49.359Z,94.73
2016-08-17T09:39:49.365Z,93.28
2016-08-17T09:40:49.369Z,92.41
2016-08-17T09:42:04.287Z,91.83
2016-08-17T09:42:49.379Z,89.96
2016-08-17T09:43:49.376Z,89.09
2016-08-17T09:44:49.378Z,90.01
2016-08-17T09:45:49.481Z,91.84
2016-08-17T09:46:49.638Z,93.67
2016-08-17T09:47:49.393Z,93.09
2016-08-17T09:48:49.393Z,94.64
2016-08-17T09:49:49.398Z,95.26
2016-08-17T09:50:49.396Z,95.36
2016-08-17T09:51:49.401Z,93.62
2016-08-17T09:52:49.414Z,92.08
2016-08-17T09:53:49.408Z,91.75
2016-08-17T09:54:49.411Z,93.48
2016-08-17T09:55:49.413Z,94.82
2016-08-17T09:56:49.419Z,95.5
2016-08-17T09:57:49.422Z,96.17
2016-08-17T09:58:49.418Z,96.89
2016-08-17T09:59:49.422Z,97.19
2016-08-17T10:00:49.425Z,97.47
2016-08-17T10:01:49.426Z,97.47
2016-08-17T10:02:49.431Z,95.16
2016-08-17T10:03:49.436Z,94.97
2016-08-17T10:04:49.438Z,96.12
2016-08-17T10:05:49.436Z,96.61
2016-08-17T10:06:49.440Z,96.42
2016-08-17T10:07:49.446Z,96.03
2016-08-17T10:08:49.444Z,96.32
2016-08-17T10:09:49.460Z,97.67
2016-08-17T10:10:49.447Z,97.76
2016-08-17T10:11:50.416Z,97.19
2016-08-17T10:12:50.078Z,97.28
2016-08-17T10:13:49.956Z,96.8
2016-08-17T10:14:49.758Z,95.94
2016-08-17T10:15:49.463Z,95.94
2016-08-17T10:16:49.460Z,96.51
2016-08-17T10:17:49.464Z,96.94
2016-08-17T10:18:49.469Z,96.94
2016-08-17T10:19:49.481Z,96.94
2016-08-17T10:20:49.475Z,98.1
2016-08-17T10:21:50.992Z,98.05
2016-08-17T10:22:49.529Z,96.22
2016-08-17T10:23:49.818Z,96.8
2016-08-17T10:24:49.589Z,96.99
2016-08-17T10:25:50.199Z,97.96
2016-08-17T10:26:49.485Z,99.26
2016-08-17T10:27:49.489Z,99.6
2016-08-17T10:28:49.494Z,99.84
2016-08-17T10:29:49.499Z,99.07
2016-08-17T10:30:49.499Z,98.49
2016-08-17T10:31:49.502Z,96.66
2016-08-17T10:32:49.508Z,96.08
2016-08-17T10:33:49.505Z,95.83
2016-08-17T10:34:49.515Z,95.83
2016-08-17T10:35:49.512Z,95.54
2016-08-17T10:36:49.514Z,92.55
2016-08-17T10:37:49.523Z,91.83
2016-08-17T10:38:49.524Z,88.75
2016-08-17T10:39:49.529Z,84.75
2016-08-17T10:40:49.533Z,86.73
2016-08-17T10:41:49.530Z,87.7
2016-08-17T10:42:49.539Z,84.86
2016-08-17T10:43:49.550Z,85.82
2016-08-17T10:44:49.540Z,88.42
2016-08-17T10:45:49.547Z,89.48
2016-08-17T10:46:49.544Z,91.12
2016-08-17T10:47:49.554Z,91.36
2016-08-17T10:48:49.556Z,92.22
2016-08-17T10:50:04.475Z,93.09
2016-08-17T10:50:49.610Z,92.8
2016-08-17T10:51:49.715Z,92.9
2016-08-17T10:52:49.912Z,92.9
2016-08-17T10:53:49.565Z,92.32
2016-08-17T10:54:49.918Z,92.41
2016-08-17T10:55:49.568Z,90.78
2016-08-17T10:56:49.569Z,88.08
2016-08-17T10:57:49.578Z,83.41
2016-08-17T10:58:50.825Z,83.51
2016-08-17T11:00:50.133Z,77.31
2016-08-17T11:02:49.982Z,75.96
2016-08-17T11:03:49.595Z,73.03
2016-08-17T11:04:49.687Z,74.09
2016-08-17T11:05:49.684Z,76.11
2016-08-17T11:06:49.592Z,72.45
2016-08-17T11:07:49.594Z,71.78
2016-08-17T11:08:49.596Z,74.19
2016-08-17T11:09:49.594Z,75.82
2016-08-17T11:10:49.594Z,77.26
2016-08-17T11:11:49.597Z,78.61
2016-08-17T11:12:49.598Z,77.98
2016-08-17T11:13:49.598Z,77.69
2016-08-17T11:14:49.614Z,79.23
2016-08-17T11:15:49.602Z,80
2016-08-17T11:16:49.602Z,80.81
2016-08-17T11:17:49.606Z,80.91
2016-08-17T11:18:49.608Z,78.21
2016-08-17T11:19:49.606Z,76.09
2016-08-17T11:20:49.816Z,76.28
2016-08-17T11:21:49.610Z,69.06
2016-08-17T11:22:49.612Z,67.61
2016-08-17T11:23:49.613Z,68.87
2016-08-17T11:24:49.612Z,70.12
2016-08-17T11:25:49.615Z,72.24
2016-08-17T11:26:49.615Z,72.91
2016-08-17T11:27:49.620Z,74.07
2016-08-17T11:28:49.622Z,72.66
2016-08-17T11:29:50.120Z,71.6
2016-08-17T11:30:50.711Z,71.5
2016-08-17T11:31:50.809Z,71.31
2016-08-17T11:32:49.733Z,70.83
2016-08-17T11:33:49.635Z,70.92
2016-08-17T11:34:49.628Z,70.15
2016-08-17T11:35:49.635Z,70.76
2016-08-17T11:36:49.631Z,69.51
2016-08-17T11:37:49.776Z,68.35
2016-08-17T11:38:49.636Z,69.23
2016-08-17T11:39:49.804Z,68.84
2016-08-17T11:40:50.862Z,67.4
2016-08-17T11:41:49.689Z,67.68
2016-08-17T11:42:49.643Z,68.55
2016-08-17T11:43:49.648Z,68.74
2016-08-17T11:44:49.645Z,67.68
2016-08-17T11:45:49.659Z,65.53
2016-08-17T11:46:49.650Z,63.98
2016-08-17T11:47:49.653Z,63.5
2016-08-17T11:48:49.658Z,59.45
2016-08-17T11:49:49.657Z,57.89
2016-08-17T11:50:49.658Z,57.4
2016-08-17T11:51:49.675Z,56.32
2016-08-17T11:52:49.664Z,56.51
2016-08-17T11:53:49.664Z,58.34
2016-08-17T11:54:49.666Z,58.44
2016-08-17T11:55:49.668Z,60.17
2016-08-17T11:56:49.666Z,59.3
2016-08-17T11:57:49.668Z,56.51
2016-08-17T11:58:49.674Z,56.41
2016-08-17T11:59:49.676Z,56.41
2016-08-17T12:00:49.669Z,56.99
2016-08-17T12:01:49.679Z,58.92
2016-08-17T12:02:49.679Z,60.17
2016-08-17T12:03:49.680Z,61.74
2016-08-17T12:04:49.678Z,63.18
2016-08-17T12:05:49.678Z,64.34
2016-08-17T12:06:49.682Z,64.05
2016-08-17T12:08:50.484Z,64.47
2016-08-17T12:09:49.682Z,64.18
2016-08-17T12:10:50.236Z,63.12
2016-08-17T12:11:49.686Z,59.65
2016-08-17T12:12:50.041Z,58.3
2016-08-17T12:13:49.691Z,57.34
2016-08-17T12:14:49.689Z,58.88
2016-08-17T12:15:49.693Z,59.94
2016-08-17T12:17:50.546Z,59.07
2016-08-17T12:18:49.995Z,56.76
2016-08-17T12:19:49.703Z,58.11
2016-08-17T12:20:49.700Z,59.45
2016-08-17T12:21:49.705Z,61.38
2016-08-17T12:22:49.804Z,62.73
2016-08-17T12:23:49.708Z,63.63
2016-08-17T12:24:49.755Z,63.82
2016-08-17T12:25:49.704Z,62.96
2016-08-17T12:26:49.709Z,60.06
2016-08-17T12:27:49.712Z,61.32
2016-08-17T12:28:49.712Z,61.03
2016-08-17T12:29:49.715Z,58.14
2016-08-17T12:30:49.720Z,54.09
2016-08-17T12:31:49.721Z,54.09
2016-08-17T12:32:49.718Z,51.68
2016-08-17T12:33:49.724Z,49.94
2016-08-17T12:34:49.722Z,50.04
2016-08-17T12:35:49.726Z,51.07
2016-08-17T12:36:49.727Z,53
2016-08-17T12:37:49.730Z,54.35
2016-08-17T12:38:49.729Z,56.57
2016-08-17T12:39:49.731Z,57.65
2016-08-17T12:40:49.739Z,58.04
2016-08-17T12:41:49.739Z,58.91
2016-08-17T12:42:49.743Z,60.26
2016-08-17T12:43:49.744Z,61.06
2016-08-17T12:44:49.742Z,61.54
2016-08-17T12:45:49.744Z,62.02
2016-08-17T12:46:49.750Z,61.83
2016-08-17T12:47:49.747Z,62.7
2016-08-17T12:48:50.961Z,62.82
2016-08-17T12:49:50.254Z,60.31
2016-08-17T12:50:49.753Z,58.65
2016-08-17T12:51:49.762Z,57.62
2016-08-17T12:52:49.761Z,57.2
2016-08-17T12:53:49.845Z,57.52
2016-08-17T12:54:50.119Z,57.49
2016-08-17T12:55:49.831Z,57.23
2016-08-17T12:56:49.767Z,57.78
2016-08-17T12:57:50.168Z,58.1
2016-08-17T12:58:50.080Z,56.94
2016-08-17T12:59:49.781Z,57.23
2016-08-17T13:00:49.776Z,57.14
2016-08-17T13:01:49.778Z,55.98
2016-08-17T13:02:49.785Z,56.65
2016-08-17T13:03:49.796Z,56.39
2016-08-17T13:04:49.782Z,57.06
2016-08-17T13:05:49.784Z,57.16